Weather at Kecskemét Air Base

Public forecast

Using degrees Celsius for public forecast. Weather courtesy of forecast.io.

Current aviation weather report (METAR) for Kecskemét Air Base

2024/06/21 22:15 (retrieved 29 minutes ago)

LHKE 212215Z 00000KT CAVOK 24/19 Q1012 NOSIG RMK BLU

Closest aviation forecast (TAF) to Kecskemét Air Base

Closest forecast is Budapest Liszt Ferenc International Airport, 36.6 nm (67.9 km) NNW.

2024/06/21 18:27 (retrieved 4 hours ago)

TAF TAF LHBP 211715Z 2118/2218 09006KT CAVOK BECMG 2204/2207 32012KT PROB40 TEMPO 2204/2212 VRB15G28KT 5000 SHRA TSRA SCT050CB BKN080